sensor_id;sensor_type;location;lat;lon;timestamp;P1;durP1;ratioP1;P2;durP2;ratioP2
9288;SDS011;4683;50.864;12.086;2022-09-20T00:01:29;2.13;;;1.20;;
9288;SDS011;4683;50.864;12.086;2022-09-20T00:04:02;1.43;;;1.10;;
9288;SDS011;4683;50.864;12.086;2022-09-20T00:06:33;2.73;;;1.43;;
9288;SDS011;4683;50.864;12.086;2022-09-20T00:09:01;3.47;;;1.07;;
9288;SDS011;4683;50.864;12.086;2022-09-20T00:11:31;2.50;;;1.40;;
9288;SDS011;4683;50.864;12.086;2022-09-20T00:14:02;3.30;;;1.60;;
9288;SDS011;4683;50.864;12.086;2022-09-20T00:16:34;4.87;;;1.43;;
9288;SDS011;4683;50.864;12.086;2022-09-20T00:19:06;3.43;;;1.20;;
9288;SDS011;4683;50.864;12.086;2022-09-20T00:21:35;2.73;;;0.90;;
9288;SDS011;4683;50.864;12.086;2022-09-20T00:24:03;1.70;;;1.33;;
9288;SDS011;4683;50.864;12.086;2022-09-20T00:26:32;1.90;;;1.20;;
9288;SDS011;4683;50.864;12.086;2022-09-20T00:29:01;2.27;;;1.30;;
9288;SDS011;4683;50.864;12.086;2022-09-20T00:31:30;4.13;;;1.47;;
9288;SDS011;4683;50.864;12.086;2022-09-20T00:33:58;3.20;;;1.07;;
9288;SDS011;4683;50.864;12.086;2022-09-20T00:36:45;4.23;;;1.40;;
9288;SDS011;4683;50.864;12.086;2022-09-20T00:39:14;5.53;;;2.93;;
9288;SDS011;4683;50.864;12.086;2022-09-20T00:41:42;4.27;;;1.30;;
9288;SDS011;4683;50.864;12.086;2022-09-20T00:47:16;1.93;;;1.20;;
9288;SDS011;4683;50.864;12.086;2022-09-20T00:49:54;3.50;;;1.00;;
9288;SDS011;4683;50.864;12.086;2022-09-20T00:52:29;1.87;;;1.00;;
9288;SDS011;4683;50.864;12.086;2022-09-20T00:54:58;2.97;;;1.50;;
9288;SDS011;4683;50.864;12.086;2022-09-20T00:57:29;3.80;;;1.40;;
9288;SDS011;4683;50.864;12.086;2022-09-20T01:00:00;3.97;;;1.30;;
9288;SDS011;4683;50.864;12.086;2022-09-20T01:02:34;2.33;;;1.10;;
9288;SDS011;4683;50.864;12.086;2022-09-20T01:05:08;1.73;;;1.03;;
9288;SDS011;4683;50.864;12.086;2022-09-20T01:07:40;2.87;;;1.20;;
9288;SDS011;4683;50.864;12.086;2022-09-20T01:10:09;3.90;;;1.10;;
9288;SDS011;4683;50.864;12.086;2022-09-20T01:12:38;1.77;;;1.00;;
9288;SDS011;4683;50.864;12.086;2022-09-20T01:15:09;2.67;;;1.17;;
9288;SDS011;4683;50.864;12.086;2022-09-20T01:17:39;3.50;;;1.13;;
9288;SDS011;4683;50.864;12.086;2022-09-20T01:20:14;3.70;;;1.17;;
9288;SDS011;4683;50.864;12.086;2022-09-20T01:23:13;2.13;;;1.13;;
9288;SDS011;4683;50.864;12.086;2022-09-20T01:26:15;1.97;;;1.20;;
9288;SDS011;4683;50.864;12.086;2022-09-20T01:29:17;3.67;;;1.20;;
9288;SDS011;4683;50.864;12.086;2022-09-20T01:32:02;2.20;;;1.10;;
9288;SDS011;4683;50.864;12.086;2022-09-20T01:34:39;2.07;;;1.47;;
9288;SDS011;4683;50.864;12.086;2022-09-20T01:37:14;6.73;;;2.10;;
9288;SDS011;4683;50.864;12.086;2022-09-20T01:39:51;5.17;;;2.87;;
9288;SDS011;4683;50.864;12.086;2022-09-20T01:42:31;4.43;;;1.80;;
9288;SDS011;4683;50.864;12.086;2022-09-20T01:45:08;2.43;;;1.10;;
9288;SDS011;4683;50.864;12.086;2022-09-20T01:47:44;2.30;;;1.17;;
9288;SDS011;4683;50.864;12.086;2022-09-20T01:50:28;2.03;;;1.23;;
9288;SDS011;4683;50.864;12.086;2022-09-20T01:53:08;2.00;;;0.83;;
9288;SDS011;4683;50.864;12.086;2022-09-20T01:56:06;1.97;;;0.97;;
9288;SDS011;4683;50.864;12.086;2022-09-20T01:59:05;1.30;;;1.13;;
9288;SDS011;4683;50.864;12.086;2022-09-20T02:08:44;2.73;;;1.50;;
9288;SDS011;4683;50.864;12.086;2022-09-20T02:11:41;2.67;;;1.13;;
9288;SDS011;4683;50.864;12.086;2022-09-20T02:14:37;1.23;;;1.00;;
9288;SDS011;4683;50.864;12.086;2022-09-20T02:17:17;3.03;;;1.47;;
9288;SDS011;4683;50.864;12.086;2022-09-20T02:20:03;3.80;;;1.50;;
9288;SDS011;4683;50.864;12.086;2022-09-20T02:22:47;4.33;;;1.50;;
9288;SDS011;4683;50.864;12.086;2022-09-20T02:25:38;3.80;;;1.40;;
9288;SDS011;4683;50.864;12.086;2022-09-20T02:28:43;4.90;;;1.53;;
9288;SDS011;4683;50.864;12.086;2022-09-20T02:31:30;4.43;;;1.67;;
9288;SDS011;4683;50.864;12.086;2022-09-20T02:34:29;2.73;;;1.30;;
9288;SDS011;4683;50.864;12.086;2022-09-20T02:37:34;2.97;;;1.33;;
9288;SDS011;4683;50.864;12.086;2022-09-20T02:40:24;4.57;;;1.33;;
9288;SDS011;4683;50.864;12.086;2022-09-20T02:43:23;3.67;;;1.50;;
9288;SDS011;4683;50.864;12.086;2022-09-20T02:46:00;2.27;;;1.10;;
9288;SDS011;4683;50.864;12.086;2022-09-20T02:48:38;4.90;;;1.70;;
9288;SDS011;4683;50.864;12.086;2022-09-20T02:51:17;5.20;;;2.17;;
9288;SDS011;4683;50.864;12.086;2022-09-20T02:53:54;1.67;;;1.50;;
9288;SDS011;4683;50.864;12.086;2022-09-20T02:56:33;4.63;;;1.40;;
9288;SDS011;4683;50.864;12.086;2022-09-20T02:59:08;3.53;;;1.83;;
9288;SDS011;4683;50.864;12.086;2022-09-20T03:01:49;4.63;;;1.90;;
9288;SDS011;4683;50.864;12.086;2022-09-20T03:04:33;7.33;;;2.23;;
9288;SDS011;4683;50.864;12.086;2022-09-20T03:07:18;6.70;;;2.17;;
9288;SDS011;4683;50.864;12.086;2022-09-20T03:09:59;4.90;;;1.93;;
9288;SDS011;4683;50.864;12.086;2022-09-20T03:12:44;5.50;;;2.30;;
9288;SDS011;4683;50.864;12.086;2022-09-20T03:15:26;5.67;;;2.07;;
9288;SDS011;4683;50.864;12.086;2022-09-20T03:18:06;5.50;;;1.77;;
9288;SDS011;4683;50.864;12.086;2022-09-20T03:20:40;5.30;;;1.80;;
9288;SDS011;4683;50.864;12.086;2022-09-20T03:23:34;4.97;;;2.13;;
9288;SDS011;4683;50.864;12.086;2022-09-20T03:26:16;5.90;;;2.27;;
9288;SDS011;4683;50.864;12.086;2022-09-20T03:29:02;8.20;;;2.50;;
9288;SDS011;4683;50.864;12.086;2022-09-20T03:31:41;6.00;;;2.77;;
9288;SDS011;4683;50.864;12.086;2022-09-20T03:34:32;4.53;;;2.50;;
9288;SDS011;4683;50.864;12.086;2022-09-20T03:37:23;5.03;;;2.33;;
9288;SDS011;4683;50.864;12.086;2022-09-20T03:40:22;4.87;;;2.07;;
9288;SDS011;4683;50.864;12.086;2022-09-20T03:43:18;4.73;;;2.50;;
9288;SDS011;4683;50.864;12.086;2022-09-20T03:46:06;7.97;;;2.50;;
9288;SDS011;4683;50.864;12.086;2022-09-20T03:51:58;5.67;;;2.40;;
9288;SDS011;4683;50.864;12.086;2022-09-20T03:54:47;6.93;;;2.30;;
9288;SDS011;4683;50.864;12.086;2022-09-20T04:00:46;8.50;;;2.53;;
9288;SDS011;4683;50.864;12.086;2022-09-20T04:03:33;4.90;;;2.40;;
9288;SDS011;4683;50.864;12.086;2022-09-20T04:06:21;4.27;;;2.20;;
9288;SDS011;4683;50.864;12.086;2022-09-20T04:09:26;7.67;;;2.53;;
9288;SDS011;4683;50.864;12.086;2022-09-20T04:12:19;5.93;;;2.20;;
9288;SDS011;4683;50.864;12.086;2022-09-20T04:14:59;7.50;;;2.10;;
9288;SDS011;4683;50.864;12.086;2022-09-20T04:17:48;5.63;;;2.50;;
9288;SDS011;4683;50.864;12.086;2022-09-20T04:20:28;2.57;;;2.17;;
9288;SDS011;4683;50.864;12.086;2022-09-20T04:23:11;5.67;;;2.40;;
9288;SDS011;4683;50.864;12.086;2022-09-20T04:25:51;4.63;;;2.07;;
9288;SDS011;4683;50.864;12.086;2022-09-20T04:28:20;5.13;;;2.17;;
9288;SDS011;4683;50.864;12.086;2022-09-20T04:30:58;6.17;;;2.30;;
9288;SDS011;4683;50.864;12.086;2022-09-20T04:33:44;6.03;;;2.57;;
9288;SDS011;4683;50.864;12.086;2022-09-20T04:36:20;5.60;;;2.50;;
9288;SDS011;4683;50.864;12.086;2022-09-20T04:39:06;6.97;;;2.27;;
9288;SDS011;4683;50.864;12.086;2022-09-20T04:45:28;5.27;;;2.40;;
9288;SDS011;4683;50.864;12.086;2022-09-20T04:51:56;5.80;;;2.30;;
9288;SDS011;4683;50.864;12.086;2022-09-20T04:55:12;5.47;;;2.70;;
9288;SDS011;4683;50.864;12.086;2022-09-20T05:05:27;5.53;;;1.90;;
9288;SDS011;4683;50.864;12.086;2022-09-20T05:11:59;3.23;;;1.87;;
9288;SDS011;4683;50.864;12.086;2022-09-20T05:15:22;3.40;;;2.20;;
9288;SDS011;4683;50.864;12.086;2022-09-20T05:18:15;4.87;;;2.53;;
9288;SDS011;4683;50.864;12.086;2022-09-20T05:21:30;8.03;;;4.10;;
9288;SDS011;4683;50.864;12.086;2022-09-20T05:24:36;4.80;;;2.67;;
9288;SDS011;4683;50.864;12.086;2022-09-20T05:27:39;4.37;;;2.60;;
9288;SDS011;4683;50.864;12.086;2022-09-20T05:30:18;5.80;;;2.80;;
9288;SDS011;4683;50.864;12.086;2022-09-20T05:32:59;6.57;;;3.80;;
9288;SDS011;4683;50.864;12.086;2022-09-20T05:35:39;7.00;;;3.60;;
9288;SDS011;4683;50.864;12.086;2022-09-20T05:38:17;5.20;;;3.00;;
9288;SDS011;4683;50.864;12.086;2022-09-20T05:41:02;6.67;;;3.50;;
9288;SDS011;4683;50.864;12.086;2022-09-20T05:43:41;6.83;;;2.80;;
9288;SDS011;4683;50.864;12.086;2022-09-20T05:46:34;6.97;;;3.17;;
9288;SDS011;4683;50.864;12.086;2022-09-20T05:49:25;12.53;;;7.83;;
9288;SDS011;4683;50.864;12.086;2022-09-20T05:52:14;6.80;;;4.10;;
9288;SDS011;4683;50.864;12.086;2022-09-20T05:55:06;3.40;;;2.70;;
9288;SDS011;4683;50.864;12.086;2022-09-20T05:58:07;2.77;;;2.50;;
9288;SDS011;4683;50.864;12.086;2022-09-20T06:00:59;8.13;;;3.37;;
9288;SDS011;4683;50.864;12.086;2022-09-20T06:03:35;5.73;;;3.17;;
9288;SDS011;4683;50.864;12.086;2022-09-20T06:06:12;4.10;;;2.43;;
9288;SDS011;4683;50.864;12.086;2022-09-20T06:08:52;6.23;;;2.57;;
9288;SDS011;4683;50.864;12.086;2022-09-20T06:12:02;5.53;;;2.97;;
9288;SDS011;4683;50.864;12.086;2022-09-20T06:14:50;4.67;;;2.30;;
9288;SDS011;4683;50.864;12.086;2022-09-20T06:17:27;5.10;;;2.80;;
9288;SDS011;4683;50.864;12.086;2022-09-20T06:20:07;6.40;;;2.63;;
9288;SDS011;4683;50.864;12.086;2022-09-20T06:22:45;8.00;;;2.57;;
9288;SDS011;4683;50.864;12.086;2022-09-20T06:25:18;3.50;;;2.00;;
9288;SDS011;4683;50.864;12.086;2022-09-20T06:27:54;5.00;;;2.43;;
9288;SDS011;4683;50.864;12.086;2022-09-20T06:30:28;5.10;;;2.03;;
9288;SDS011;4683;50.864;12.086;2022-09-20T06:33:09;4.00;;;2.30;;
9288;SDS011;4683;50.864;12.086;2022-09-20T06:35:44;5.00;;;3.40;;
9288;SDS011;4683;50.864;12.086;2022-09-20T06:38:29;8.23;;;3.57;;
9288;SDS011;4683;50.864;12.086;2022-09-20T06:41:31;5.57;;;3.03;;
9288;SDS011;4683;50.864;12.086;2022-09-20T06:44:04;5.30;;;2.50;;
9288;SDS011;4683;50.864;12.086;2022-09-20T06:46:32;4.80;;;2.87;;
9288;SDS011;4683;50.864;12.086;2022-09-20T06:49:02;4.20;;;2.60;;
9288;SDS011;4683;50.864;12.086;2022-09-20T06:51:33;5.03;;;3.07;;
9288;SDS011;4683;50.864;12.086;2022-09-20T06:54:03;6.27;;;5.00;;
9288;SDS011;4683;50.864;12.086;2022-09-20T06:56:35;3.97;;;2.07;;
9288;SDS011;4683;50.864;12.086;2022-09-20T06:59:05;2.17;;;1.97;;
9288;SDS011;4683;50.864;12.086;2022-09-20T07:01:35;4.17;;;2.20;;
9288;SDS011;4683;50.864;12.086;2022-09-20T07:04:03;6.40;;;2.63;;
9288;SDS011;4683;50.864;12.086;2022-09-20T07:06:31;4.30;;;2.00;;
9288;SDS011;4683;50.864;12.086;2022-09-20T07:08:59;3.33;;;1.60;;
9288;SDS011;4683;50.864;12.086;2022-09-20T07:11:28;4.87;;;2.13;;
9288;SDS011;4683;50.864;12.086;2022-09-20T07:13:56;3.53;;;1.40;;
9288;SDS011;4683;50.864;12.086;2022-09-20T07:16:26;7.37;;;2.23;;
9288;SDS011;4683;50.864;12.086;2022-09-20T07:18:54;5.63;;;1.70;;
9288;SDS011;4683;50.864;12.086;2022-09-20T07:21:22;4.03;;;1.50;;
9288;SDS011;4683;50.864;12.086;2022-09-20T07:23:50;2.23;;;1.40;;
9288;SDS011;4683;50.864;12.086;2022-09-20T07:26:19;3.30;;;1.33;;
9288;SDS011;4683;50.864;12.086;2022-09-20T07:28:48;3.33;;;1.70;;
9288;SDS011;4683;50.864;12.086;2022-09-20T07:31:17;3.57;;;1.43;;
9288;SDS011;4683;50.864;12.086;2022-09-20T07:33:48;4.97;;;1.90;;
9288;SDS011;4683;50.864;12.086;2022-09-20T07:36:17;3.37;;;1.73;;
9288;SDS011;4683;50.864;12.086;2022-09-20T07:38:46;5.00;;;1.57;;
9288;SDS011;4683;50.864;12.086;2022-09-20T07:41:15;5.97;;;2.10;;
9288;SDS011;4683;50.864;12.086;2022-09-20T07:43:44;2.80;;;1.73;;
9288;SDS011;4683;50.864;12.086;2022-09-20T07:46:13;6.07;;;2.30;;
9288;SDS011;4683;50.864;12.086;2022-09-20T07:48:40;3.60;;;1.77;;
9288;SDS011;4683;50.864;12.086;2022-09-20T07:51:11;4.77;;;1.83;;
9288;SDS011;4683;50.864;12.086;2022-09-20T07:53:40;3.40;;;1.50;;
9288;SDS011;4683;50.864;12.086;2022-09-20T07:56:09;5.93;;;1.87;;
9288;SDS011;4683;50.864;12.086;2022-09-20T07:58:39;2.90;;;1.40;;
9288;SDS011;4683;50.864;12.086;2022-09-20T08:01:10;4.43;;;1.97;;
9288;SDS011;4683;50.864;12.086;2022-09-20T08:03:39;4.83;;;2.07;;
9288;SDS011;4683;50.864;12.086;2022-09-20T08:06:08;3.77;;;1.57;;
9288;SDS011;4683;50.864;12.086;2022-09-20T08:08:41;5.97;;;1.60;;
9288;SDS011;4683;50.864;12.086;2022-09-20T08:11:10;5.30;;;1.90;;
9288;SDS011;4683;50.864;12.086;2022-09-20T08:13:41;3.83;;;2.00;;
9288;SDS011;4683;50.864;12.086;2022-09-20T08:16:11;4.43;;;1.73;;
9288;SDS011;4683;50.864;12.086;2022-09-20T08:18:43;5.17;;;1.80;;
9288;SDS011;4683;50.864;12.086;2022-09-20T08:21:14;3.77;;;1.90;;
9288;SDS011;4683;50.864;12.086;2022-09-20T08:23:44;2.67;;;1.60;;
9288;SDS011;4683;50.864;12.086;2022-09-20T08:26:14;3.57;;;1.43;;
9288;SDS011;4683;50.864;12.086;2022-09-20T08:28:44;3.73;;;1.83;;
9288;SDS011;4683;50.864;12.086;2022-09-20T08:31:15;4.33;;;1.73;;
9288;SDS011;4683;50.864;12.086;2022-09-20T08:33:45;4.73;;;1.53;;
9288;SDS011;4683;50.864;12.086;2022-09-20T08:36:17;3.73;;;1.50;;
9288;SDS011;4683;50.864;12.086;2022-09-20T08:38:48;4.27;;;1.80;;
9288;SDS011;4683;50.864;12.086;2022-09-20T08:41:18;2.60;;;1.20;;
9288;SDS011;4683;50.864;12.086;2022-09-20T08:43:49;4.17;;;1.53;;
9288;SDS011;4683;50.864;12.086;2022-09-20T08:46:22;3.93;;;2.00;;
9288;SDS011;4683;50.864;12.086;2022-09-20T08:48:54;4.90;;;2.00;;
9288;SDS011;4683;50.864;12.086;2022-09-20T08:51:26;4.50;;;2.27;;
9288;SDS011;4683;50.864;12.086;2022-09-20T08:53:59;5.03;;;2.37;;
9288;SDS011;4683;50.864;12.086;2022-09-20T08:56:28;2.00;;;1.50;;
9288;SDS011;4683;50.864;12.086;2022-09-20T08:59:00;4.67;;;2.00;;
9288;SDS011;4683;50.864;12.086;2022-09-20T09:01:29;4.77;;;1.80;;
9288;SDS011;4683;50.864;12.086;2022-09-20T09:04:01;4.03;;;1.90;;
9288;SDS011;4683;50.864;12.086;2022-09-20T09:06:40;4.83;;;2.20;;
9288;SDS011;4683;50.864;12.086;2022-09-20T09:09:11;4.47;;;1.93;;
9288;SDS011;4683;50.864;12.086;2022-09-20T09:11:45;4.60;;;2.10;;
9288;SDS011;4683;50.864;12.086;2022-09-20T09:14:16;4.70;;;2.40;;
9288;SDS011;4683;50.864;12.086;2022-09-20T09:17:13;6.50;;;2.47;;
9288;SDS011;4683;50.864;12.086;2022-09-20T09:19:44;7.30;;;2.20;;
9288;SDS011;4683;50.864;12.086;2022-09-20T09:22:20;5.17;;;2.60;;
9288;SDS011;4683;50.864;12.086;2022-09-20T09:27:51;5.50;;;2.63;;
9288;SDS011;4683;50.864;12.086;2022-09-20T09:30:24;5.33;;;2.07;;
9288;SDS011;4683;50.864;12.086;2022-09-20T09:35:44;4.50;;;2.10;;
9288;SDS011;4683;50.864;12.086;2022-09-20T09:38:26;4.47;;;2.00;;
9288;SDS011;4683;50.864;12.086;2022-09-20T09:40:57;5.50;;;1.90;;
9288;SDS011;4683;50.864;12.086;2022-09-20T09:43:27;3.63;;;2.10;;
9288;SDS011;4683;50.864;12.086;2022-09-20T09:48:47;4.53;;;1.73;;
9288;SDS011;4683;50.864;12.086;2022-09-20T09:51:31;4.50;;;2.07;;
9288;SDS011;4683;50.864;12.086;2022-09-20T09:54:02;4.23;;;1.60;;
9288;SDS011;4683;50.864;12.086;2022-09-20T09:56:41;3.10;;;1.23;;
9288;SDS011;4683;50.864;12.086;2022-09-20T09:59:32;5.63;;;1.53;;
9288;SDS011;4683;50.864;12.086;2022-09-20T10:02:20;5.37;;;2.50;;
9288;SDS011;4683;50.864;12.086;2022-09-20T10:05:20;3.30;;;1.73;;
9288;SDS011;4683;50.864;12.086;2022-09-20T10:07:57;4.00;;;2.20;;
9288;SDS011;4683;50.864;12.086;2022-09-20T10:10:46;6.13;;;1.70;;
9288;SDS011;4683;50.864;12.086;2022-09-20T10:13:30;2.83;;;1.60;;
9288;SDS011;4683;50.864;12.086;2022-09-20T10:16:07;3.67;;;2.03;;
9288;SDS011;4683;50.864;12.086;2022-09-20T10:18:47;4.40;;;2.10;;
9288;SDS011;4683;50.864;12.086;2022-09-20T10:21:34;4.70;;;2.00;;
9288;SDS011;4683;50.864;12.086;2022-09-20T10:24:20;5.27;;;2.30;;
9288;SDS011;4683;50.864;12.086;2022-09-20T10:27:08;2.47;;;1.50;;
9288;SDS011;4683;50.864;12.086;2022-09-20T10:29:53;3.57;;;2.30;;
9288;SDS011;4683;50.864;12.086;2022-09-20T10:32:50;4.13;;;1.70;;
9288;SDS011;4683;50.864;12.086;2022-09-20T10:35:32;4.13;;;1.70;;
9288;SDS011;4683;50.864;12.086;2022-09-20T10:38:17;3.47;;;2.13;;
9288;SDS011;4683;50.864;12.086;2022-09-20T10:44:07;4.43;;;2.00;;
9288;SDS011;4683;50.864;12.086;2022-09-20T10:46:51;3.33;;;1.63;;
9288;SDS011;4683;50.864;12.086;2022-09-20T10:49:27;4.23;;;1.90;;
9288;SDS011;4683;50.864;12.086;2022-09-20T10:52:08;4.87;;;1.90;;
9288;SDS011;4683;50.864;12.086;2022-09-20T10:55:10;2.47;;;1.70;;
9288;SDS011;4683;50.864;12.086;2022-09-20T10:58:06;2.67;;;1.80;;
9288;SDS011;4683;50.864;12.086;2022-09-20T11:01:06;4.30;;;2.10;;
9288;SDS011;4683;50.864;12.086;2022-09-20T11:04:00;3.80;;;1.43;;
9288;SDS011;4683;50.864;12.086;2022-09-20T11:06:50;2.83;;;1.20;;
9288;SDS011;4683;50.864;12.086;2022-09-20T11:09:31;3.77;;;1.73;;
9288;SDS011;4683;50.864;12.086;2022-09-20T11:12:08;3.10;;;1.80;;
9288;SDS011;4683;50.864;12.086;2022-09-20T11:14:50;2.97;;;1.50;;
9288;SDS011;4683;50.864;12.086;2022-09-20T11:17:28;3.17;;;1.57;;
9288;SDS011;4683;50.864;12.086;2022-09-20T11:20:04;4.20;;;1.73;;
9288;SDS011;4683;50.864;12.086;2022-09-20T11:22:42;2.93;;;1.70;;
9288;SDS011;4683;50.864;12.086;2022-09-20T11:25:14;2.37;;;1.43;;
9288;SDS011;4683;50.864;12.086;2022-09-20T11:27:48;3.37;;;2.50;;
9288;SDS011;4683;50.864;12.086;2022-09-20T11:30:24;2.70;;;1.80;;
9288;SDS011;4683;50.864;12.086;2022-09-20T11:32:56;3.90;;;1.70;;
9288;SDS011;4683;50.864;12.086;2022-09-20T11:35:32;3.37;;;1.87;;
9288;SDS011;4683;50.864;12.086;2022-09-20T11:38:08;1.53;;;1.43;;
9288;SDS011;4683;50.864;12.086;2022-09-20T11:40:44;3.97;;;1.73;;
9288;SDS011;4683;50.864;12.086;2022-09-20T11:43:18;2.37;;;1.20;;
9288;SDS011;4683;50.864;12.086;2022-09-20T11:45:50;3.03;;;1.43;;
9288;SDS011;4683;50.864;12.086;2022-09-20T11:48:26;2.30;;;1.13;;
9288;SDS011;4683;50.864;12.086;2022-09-20T11:54:40;2.57;;;1.50;;
9288;SDS011;4683;50.864;12.086;2022-09-20T11:57:39;3.87;;;1.23;;
9288;SDS011;4683;50.864;12.086;2022-09-20T12:00:07;4.40;;;1.50;;
9288;SDS011;4683;50.864;12.086;2022-09-20T12:02:43;3.50;;;1.37;;
9288;SDS011;4683;50.864;12.086;2022-09-20T12:05:30;2.53;;;1.43;;
9288;SDS011;4683;50.864;12.086;2022-09-20T12:08:04;2.27;;;1.40;;
9288;SDS011;4683;50.864;12.086;2022-09-20T12:10:44;1.83;;;1.10;;
9288;SDS011;4683;50.864;12.086;2022-09-20T12:13:27;2.20;;;1.27;;
9288;SDS011;4683;50.864;12.086;2022-09-20T12:15:58;2.60;;;1.20;;
9288;SDS011;4683;50.864;12.086;2022-09-20T12:18:34;2.07;;;0.97;;
9288;SDS011;4683;50.864;12.086;2022-09-20T12:21:30;3.50;;;1.60;;
9288;SDS011;4683;50.864;12.086;2022-09-20T12:24:43;3.03;;;1.70;;
9288;SDS011;4683;50.864;12.086;2022-09-20T12:27:56;1.47;;;1.00;;
9288;SDS011;4683;50.864;12.086;2022-09-20T12:30:40;2.83;;;2.00;;
9288;SDS011;4683;50.864;12.086;2022-09-20T12:33:17;2.13;;;0.87;;
9288;SDS011;4683;50.864;12.086;2022-09-20T12:35:51;2.90;;;1.77;;
9288;SDS011;4683;50.864;12.086;2022-09-20T12:38:35;1.17;;;0.73;;
9288;SDS011;4683;50.864;12.086;2022-09-20T12:41:13;2.57;;;1.30;;
9288;SDS011;4683;50.864;12.086;2022-09-20T12:46:49;3.63;;;1.10;;
9288;SDS011;4683;50.864;12.086;2022-09-20T12:49:22;1.60;;;1.10;;
9288;SDS011;4683;50.864;12.086;2022-09-20T12:52:27;1.97;;;1.07;;
9288;SDS011;4683;50.864;12.086;2022-09-20T12:55:33;4.73;;;1.30;;
9288;SDS011;4683;50.864;12.086;2022-09-20T12:58:24;1.97;;;1.13;;
9288;SDS011;4683;50.864;12.086;2022-09-20T13:01:30;4.20;;;1.30;;
9288;SDS011;4683;50.864;12.086;2022-09-20T13:07:34;0.93;;;0.83;;
9288;SDS011;4683;50.864;12.086;2022-09-20T13:10:17;3.07;;;0.87;;
9288;SDS011;4683;50.864;12.086;2022-09-20T13:13:01;1.40;;;0.90;;
9288;SDS011;4683;50.864;12.086;2022-09-20T13:15:51;2.80;;;0.80;;
9288;SDS011;4683;50.864;12.086;2022-09-20T13:18:22;1.80;;;0.80;;
9288;SDS011;4683;50.864;12.086;2022-09-20T13:20:53;1.27;;;0.73;;
9288;SDS011;4683;50.864;12.086;2022-09-20T13:23:32;1.63;;;1.10;;
9288;SDS011;4683;50.864;12.086;2022-09-20T13:26:13;2.20;;;0.90;;
9288;SDS011;4683;50.864;12.086;2022-09-20T13:28:50;2.10;;;1.03;;
9288;SDS011;4683;50.864;12.086;2022-09-20T13:31:22;2.37;;;1.50;;
9288;SDS011;4683;50.864;12.086;2022-09-20T13:34:14;3.00;;;1.13;;
9288;SDS011;4683;50.864;12.086;2022-09-20T13:36:49;3.03;;;1.37;;
9288;SDS011;4683;50.864;12.086;2022-09-20T13:39:22;1.60;;;1.00;;
9288;SDS011;4683;50.864;12.086;2022-09-20T13:42:00;2.13;;;1.30;;
9288;SDS011;4683;50.864;12.086;2022-09-20T13:44:37;1.97;;;1.50;;
9288;SDS011;4683;50.864;12.086;2022-09-20T13:47:19;2.27;;;1.07;;
9288;SDS011;4683;50.864;12.086;2022-09-20T13:49:50;1.20;;;0.80;;
9288;SDS011;4683;50.864;12.086;2022-09-20T13:54:50;1.90;;;0.80;;
9288;SDS011;4683;50.864;12.086;2022-09-20T13:57:22;1.20;;;0.90;;
9288;SDS011;4683;50.864;12.086;2022-09-20T14:00:13;1.33;;;1.00;;
9288;SDS011;4683;50.864;12.086;2022-09-20T14:02:43;2.40;;;1.00;;
9288;SDS011;4683;50.864;12.086;2022-09-20T14:05:17;1.70;;;1.00;;
9288;SDS011;4683;50.864;12.086;2022-09-20T14:07:48;2.60;;;1.50;;
9288;SDS011;4683;50.864;12.086;2022-09-20T14:10:27;1.67;;;1.03;;
9288;SDS011;4683;50.864;12.086;2022-09-20T14:13:01;2.33;;;0.70;;
9288;SDS011;4683;50.864;12.086;2022-09-20T14:15:34;0.87;;;0.80;;
9288;SDS011;4683;50.864;12.086;2022-09-20T14:18:08;1.20;;;1.10;;
9288;SDS011;4683;50.864;12.086;2022-09-20T14:20:41;1.80;;;1.07;;
9288;SDS011;4683;50.864;12.086;2022-09-20T14:23:20;1.10;;;0.97;;
9288;SDS011;4683;50.864;12.086;2022-09-20T14:26:07;0.73;;;0.70;;
9288;SDS011;4683;50.864;12.086;2022-09-20T14:28:50;1.53;;;1.13;;
9288;SDS011;4683;50.864;12.086;2022-09-20T14:31:23;1.20;;;1.00;;
9288;SDS011;4683;50.864;12.086;2022-09-20T14:33:58;1.43;;;0.63;;
9288;SDS011;4683;50.864;12.086;2022-09-20T14:36:29;0.63;;;0.63;;
9288;SDS011;4683;50.864;12.086;2022-09-20T14:39:00;0.83;;;0.50;;
9288;SDS011;4683;50.864;12.086;2022-09-20T14:41:40;2.80;;;0.97;;
9288;SDS011;4683;50.864;12.086;2022-09-20T14:44:16;0.73;;;0.70;;
9288;SDS011;4683;50.864;12.086;2022-09-20T14:46:53;0.90;;;0.60;;
9288;SDS011;4683;50.864;12.086;2022-09-20T14:49:29;0.93;;;0.70;;
9288;SDS011;4683;50.864;12.086;2022-09-20T14:55:15;1.30;;;1.20;;
9288;SDS011;4683;50.864;12.086;2022-09-20T14:57:55;1.63;;;1.53;;
9288;SDS011;4683;50.864;12.086;2022-09-20T15:00:26;1.00;;;1.00;;
9288;SDS011;4683;50.864;12.086;2022-09-20T15:03:00;0.70;;;0.70;;
9288;SDS011;4683;50.864;12.086;2022-09-20T15:05:34;1.30;;;1.20;;
9288;SDS011;4683;50.864;12.086;2022-09-20T15:08:02;1.50;;;0.80;;
9288;SDS011;4683;50.864;12.086;2022-09-20T15:10:30;0.97;;;0.97;;
9288;SDS011;4683;50.864;12.086;2022-09-20T15:13:00;0.90;;;0.90;;
9288;SDS011;4683;50.864;12.086;2022-09-20T15:15:28;1.77;;;0.83;;
9288;SDS011;4683;50.864;12.086;2022-09-20T15:17:58;1.90;;;0.93;;
9288;SDS011;4683;50.864;12.086;2022-09-20T15:20:26;1.60;;;1.00;;
9288;SDS011;4683;50.864;12.086;2022-09-20T15:22:54;1.27;;;1.07;;
9288;SDS011;4683;50.864;12.086;2022-09-20T15:25:23;1.20;;;1.03;;
9288;SDS011;4683;50.864;12.086;2022-09-20T15:27:53;2.23;;;1.27;;
9288;SDS011;4683;50.864;12.086;2022-09-20T15:30:22;1.40;;;0.97;;
9288;SDS011;4683;50.864;12.086;2022-09-20T15:32:51;2.20;;;1.50;;
9288;SDS011;4683;50.864;12.086;2022-09-20T15:35:21;1.63;;;1.40;;
9288;SDS011;4683;50.864;12.086;2022-09-20T15:37:50;1.87;;;1.03;;
9288;SDS011;4683;50.864;12.086;2022-09-20T15:40:18;1.20;;;0.90;;
9288;SDS011;4683;50.864;12.086;2022-09-20T15:42:46;1.83;;;1.07;;
9288;SDS011;4683;50.864;12.086;2022-09-20T15:45:20;2.13;;;0.80;;
9288;SDS011;4683;50.864;12.086;2022-09-20T15:47:49;0.97;;;0.83;;
9288;SDS011;4683;50.864;12.086;2022-09-20T15:50:21;1.20;;;0.53;;
9288;SDS011;4683;50.864;12.086;2022-09-20T15:52:50;2.20;;;1.10;;
9288;SDS011;4683;50.864;12.086;2022-09-20T15:55:18;1.37;;;0.80;;
9288;SDS011;4683;50.864;12.086;2022-09-20T15:57:47;1.40;;;1.07;;
9288;SDS011;4683;50.864;12.086;2022-09-20T16:00:16;2.90;;;1.20;;
9288;SDS011;4683;50.864;12.086;2022-09-20T16:02:47;0.70;;;0.70;;
9288;SDS011;4683;50.864;12.086;2022-09-20T16:05:16;1.63;;;0.87;;
9288;SDS011;4683;50.864;12.086;2022-09-20T16:07:45;1.00;;;1.00;;
9288;SDS011;4683;50.864;12.086;2022-09-20T16:10:14;1.30;;;1.20;;
9288;SDS011;4683;50.864;12.086;2022-09-20T16:12:42;3.67;;;1.73;;
9288;SDS011;4683;50.864;12.086;2022-09-20T16:15:15;1.60;;;1.47;;
9288;SDS011;4683;50.864;12.086;2022-09-20T16:17:43;1.40;;;1.10;;
9288;SDS011;4683;50.864;12.086;2022-09-20T16:20:29;1.90;;;1.30;;
9288;SDS011;4683;50.864;12.086;2022-09-20T16:22:58;2.80;;;1.83;;
9288;SDS011;4683;50.864;12.086;2022-09-20T16:25:28;4.07;;;3.10;;
9288;SDS011;4683;50.864;12.086;2022-09-20T16:27:59;0.87;;;0.87;;
9288;SDS011;4683;50.864;12.086;2022-09-20T16:30:27;1.27;;;1.17;;
9288;SDS011;4683;50.864;12.086;2022-09-20T16:32:56;1.67;;;1.43;;
9288;SDS011;4683;50.864;12.086;2022-09-20T16:35:30;1.60;;;1.07;;
9288;SDS011;4683;50.864;12.086;2022-09-20T16:38:00;2.20;;;1.80;;
9288;SDS011;4683;50.864;12.086;2022-09-20T16:40:28;1.43;;;1.17;;
9288;SDS011;4683;50.864;12.086;2022-09-20T16:42:56;5.23;;;3.00;;
9288;SDS011;4683;50.864;12.086;2022-09-20T16:45:24;1.73;;;1.60;;
9288;SDS011;4683;50.864;12.086;2022-09-20T16:47:53;1.40;;;1.30;;
9288;SDS011;4683;50.864;12.086;2022-09-20T16:50:23;3.60;;;2.90;;
9288;SDS011;4683;50.864;12.086;2022-09-20T16:52:51;2.40;;;1.40;;
9288;SDS011;4683;50.864;12.086;2022-09-20T16:55:20;1.90;;;1.80;;
9288;SDS011;4683;50.864;12.086;2022-09-20T16:57:50;2.07;;;1.87;;
9288;SDS011;4683;50.864;12.086;2022-09-20T17:00:18;2.13;;;1.70;;
9288;SDS011;4683;50.864;12.086;2022-09-20T17:02:47;2.67;;;1.53;;
9288;SDS011;4683;50.864;12.086;2022-09-20T17:05:16;3.87;;;3.27;;
9288;SDS011;4683;50.864;12.086;2022-09-20T17:07:44;12.60;;;6.97;;
9288;SDS011;4683;50.864;12.086;2022-09-20T17:10:12;1.50;;;1.40;;